sensor_id;sensor_type;location;lat;lon;timestamp;pressure;altitude;pressure_sealevel;temperature;humidity
41312;BME280;27061;41.648;24.568;2023-04-20T00:00:05;85423.97;;;8.12;71.83
41312;BME280;27061;41.648;24.568;2023-04-20T00:02:39;85416.44;;;8.06;72.30
41312;BME280;27061;41.648;24.568;2023-04-20T00:05:08;85430.19;;;8.08;72.51
41312;BME280;27061;41.648;24.568;2023-04-20T00:07:36;85426.03;;;8.12;72.51
41312;BME280;27061;41.648;24.568;2023-04-20T00:10:04;85449.38;;;8.19;72.69
41312;BME280;27061;41.648;24.568;2023-04-20T00:12:32;85441.13;;;8.17;73.74
41312;BME280;27061;41.648;24.568;2023-04-20T00:14:59;85426.06;;;8.07;73.53
41312;BME280;27061;41.648;24.568;2023-04-20T00:17:26;85376.78;;;7.79;73.36
41312;BME280;27061;41.648;24.568;2023-04-20T00:19:54;85397.28;;;7.94;73.11
41312;BME280;27061;41.648;24.568;2023-04-20T00:22:21;85429.97;;;8.27;72.79
41312;BME280;27061;41.648;24.568;2023-04-20T00:24:48;85376.06;;;7.83;73.18
41312;BME280;27061;41.648;24.568;2023-04-20T00:27:15;85343.19;;;7.64;73.90
41312;BME280;27061;41.648;24.568;2023-04-20T00:29:42;85421.09;;;8.20;73.77
41312;BME280;27061;41.648;24.568;2023-04-20T00:32:09;85360.25;;;7.79;73.65
41312;BME280;27061;41.648;24.568;2023-04-20T00:34:36;85382.16;;;7.89;73.64
41312;BME280;27061;41.648;24.568;2023-04-20T00:37:03;85393.09;;;7.99;73.72
41312;BME280;27061;41.648;24.568;2023-04-20T00:39:30;85413.56;;;8.17;73.69
41312;BME280;27061;41.648;24.568;2023-04-20T00:42:07;85382.91;;;7.86;73.75
41312;BME280;27061;41.648;24.568;2023-04-20T00:44:38;85378.06;;;7.86;73.74
41312;BME280;27061;41.648;24.568;2023-04-20T00:47:10;85384.28;;;7.85;73.97
41312;BME280;27061;41.648;24.568;2023-04-20T00:49:37;85421.91;;;8.11;74.59
41312;BME280;27061;41.648;24.568;2023-04-20T00:52:05;85408.91;;;8.03;74.74
41312;BME280;27061;41.648;24.568;2023-04-20T00:54:32;85380.19;;;7.82;75.13
41312;BME280;27061;41.648;24.568;2023-04-20T00:56:59;85417.88;;;8.01;76.25
41312;BME280;27061;41.648;24.568;2023-04-20T00:59:26;85420.66;;;7.99;76.11
41312;BME280;27061;41.648;24.568;2023-04-20T01:01:53;85426.03;;;8.12;76.13
41312;BME280;27061;41.648;24.568;2023-04-20T01:04:21;85382.25;;;7.83;76.18
41312;BME280;27061;41.648;24.568;2023-04-20T01:06:49;85390.41;;;7.93;75.51
41312;BME280;27061;41.648;24.568;2023-04-20T01:09:16;85428.72;;;8.18;74.97
41312;BME280;27061;41.648;24.568;2023-04-20T01:11:43;85419.22;;;8.04;75.28
41312;BME280;27061;41.648;24.568;2023-04-20T01:14:15;85405.41;;;8.06;75.37
41312;BME280;27061;41.648;24.568;2023-04-20T01:16:42;85391.72;;;7.98;74.89
41312;BME280;27061;41.648;24.568;2023-04-20T01:19:11;85365.75;;;7.79;73.93
41312;BME280;27061;41.648;24.568;2023-04-20T01:21:38;85368.50;;;7.81;74.05
41312;BME280;27061;41.648;24.568;2023-04-20T01:24:05;85377.31;;;7.92;73.91
41312;BME280;27061;41.648;24.568;2023-04-20T01:26:32;85415.00;;;8.12;74.18
41312;BME280;27061;41.648;24.568;2023-04-20T01:28:59;85376.66;;;7.91;73.96
41312;BME280;27061;41.648;24.568;2023-04-20T01:31:27;85358.16;;;7.80;74.40
41312;BME280;27061;41.648;24.568;2023-04-20T01:33:56;85393.03;;;8.03;72.85
41312;BME280;27061;41.648;24.568;2023-04-20T01:36:23;85408.03;;;8.17;73.53
41312;BME280;27061;41.648;24.568;2023-04-20T01:38:51;85406.03;;;8.13;74.38
41312;BME280;27061;41.648;24.568;2023-04-20T01:41:18;85344.56;;;7.63;74.83
41312;BME280;27061;41.648;24.568;2023-04-20T01:43:45;85377.38;;;7.88;75.87
41312;BME280;27061;41.648;24.568;2023-04-20T01:46:12;85398.50;;;8.07;76.19
41312;BME280;27061;41.648;24.568;2023-04-20T01:48:39;85399.16;;;8.12;76.10
41312;BME280;27061;41.648;24.568;2023-04-20T01:51:07;85346.53;;;7.73;76.31
41312;BME280;27061;41.648;24.568;2023-04-20T01:53:35;85336.94;;;7.70;75.58
41312;BME280;27061;41.648;24.568;2023-04-20T01:56:02;85354.63;;;7.87;76.10
41312;BME280;27061;41.648;24.568;2023-04-20T01:58:29;85402.53;;;8.17;76.26
41312;BME280;27061;41.648;24.568;2023-04-20T02:00:57;85408.69;;;8.19;76.71
41312;BME280;27061;41.648;24.568;2023-04-20T02:03:25;85351.97;;;7.81;76.45
41312;BME280;27061;41.648;24.568;2023-04-20T02:05:53;85323.94;;;7.60;77.19
41312;BME280;27061;41.648;24.568;2023-04-20T02:08:21;85388.72;;;8.19;76.89
41312;BME280;27061;41.648;24.568;2023-04-20T02:10:48;85395.56;;;8.24;75.60
41312;BME280;27061;41.648;24.568;2023-04-20T02:13:15;85388.75;;;8.17;75.79
41312;BME280;27061;41.648;24.568;2023-04-20T02:15:43;85379.31;;;7.97;76.51
41312;BME280;27061;41.648;24.568;2023-04-20T02:18:11;85365.63;;;7.89;76.50
41312;BME280;27061;41.648;24.568;2023-04-20T02:20:38;85354.66;;;7.85;75.97
41312;BME280;27061;41.648;24.568;2023-04-20T02:23:05;85374.56;;;7.94;75.48
41312;BME280;27061;41.648;24.568;2023-04-20T02:25:34;85388.81;;;8.11;75.33
41312;BME280;27061;41.648;24.568;2023-04-20T02:28:02;85386.16;;;8.02;74.56
41312;BME280;27061;41.648;24.568;2023-04-20T02:30:30;85352.09;;;7.69;74.38
41312;BME280;27061;41.648;24.568;2023-04-20T02:32:57;85391.72;;;7.98;75.88
41312;BME280;27061;41.648;24.568;2023-04-20T02:35:24;85301.50;;;7.33;75.46
41312;BME280;27061;41.648;24.568;2023-04-20T02:37:51;85342.38;;;7.74;75.42
41312;BME280;27061;41.648;24.568;2023-04-20T02:40:18;85357.50;;;7.77;75.41
41312;BME280;27061;41.648;24.568;2023-04-20T02:42:45;85382.16;;;7.91;76.18
41312;BME280;27061;41.648;24.568;2023-04-20T02:45:12;85384.91;;;7.91;76.44
41312;BME280;27061;41.648;24.568;2023-04-20T02:47:42;85334.97;;;7.58;76.23
41312;BME280;27061;41.648;24.568;2023-04-20T02:50:11;85382.09;;;7.95;75.93
41312;BME280;27061;41.648;24.568;2023-04-20T02:52:56;85345.91;;;7.68;76.10
41312;BME280;27061;41.648;24.568;2023-04-20T02:55:23;85345.91;;;7.66;75.89
41312;BME280;27061;41.648;24.568;2023-04-20T02:57:53;85354.25;;;7.60;76.52
41312;BME280;27061;41.648;24.568;2023-04-20T03:00:25;85391.81;;;7.88;76.08
41312;BME280;27061;41.648;24.568;2023-04-20T03:03:02;85367.81;;;7.79;75.18
41312;BME280;27061;41.648;24.568;2023-04-20T03:05:30;85384.94;;;7.89;75.18
41312;BME280;27061;41.648;24.568;2023-04-20T03:07:57;85351.41;;;7.68;75.21
41312;BME280;27061;41.648;24.568;2023-04-20T03:10:25;85389.72;;;7.93;74.73
41312;BME280;27061;41.648;24.568;2023-04-20T03:13:00;85356.25;;;7.64;74.78
41312;BME280;27061;41.648;24.568;2023-04-20T03:15:31;85367.22;;;7.72;74.98
41312;BME280;27061;41.648;24.568;2023-04-20T03:18:07;85380.09;;;7.90;75.34
41312;BME280;27061;41.648;24.568;2023-04-20T03:20:34;85382.13;;;7.93;75.33
41312;BME280;27061;41.648;24.568;2023-04-20T03:23:01;85389.06;;;7.88;75.91
41312;BME280;27061;41.648;24.568;2023-04-20T03:25:29;85387.69;;;7.87;76.31
41312;BME280;27061;41.648;24.568;2023-04-20T03:27:58;85393.22;;;7.87;76.08
41312;BME280;27061;41.648;24.568;2023-04-20T03:30:25;85309.22;;;7.21;76.54
41312;BME280;27061;41.648;24.568;2023-04-20T03:33:01;85363.13;;;7.65;76.32
41312;BME280;27061;41.648;24.568;2023-04-20T03:35:28;85378.25;;;7.72;76.98
41312;BME280;27061;41.648;24.568;2023-04-20T03:37:56;85357.75;;;7.55;77.39
41312;BME280;27061;41.648;24.568;2023-04-20T03:40:23;85375.53;;;7.64;78.02
41312;BME280;27061;41.648;24.568;2023-04-20T03:42:50;85372.09;;;7.65;77.94
41312;BME280;27061;41.648;24.568;2023-04-20T03:45:17;85367.25;;;7.68;77.41
41312;BME280;27061;41.648;24.568;2023-04-20T03:47:44;85393.28;;;7.83;76.93
41312;BME280;27061;41.648;24.568;2023-04-20T03:50:11;85351.56;;;7.52;77.88
41312;BME280;27061;41.648;24.568;2023-04-20T03:52:38;85389.09;;;7.84;77.29
41312;BME280;27061;41.648;24.568;2023-04-20T03:55:08;85338.66;;;7.37;77.29
41312;BME280;27061;41.648;24.568;2023-04-20T03:57:39;85389.88;;;7.77;77.02
41312;BME280;27061;41.648;24.568;2023-04-20T04:00:07;85385.72;;;7.80;77.69
41312;BME280;27061;41.648;24.568;2023-04-20T04:02:45;85387.75;;;7.83;77.94
41312;BME280;27061;41.648;24.568;2023-04-20T04:05:17;85385.75;;;7.78;78.39
41312;BME280;27061;41.648;24.568;2023-04-20T04:07:47;85374.13;;;7.69;79.09
41312;BME280;27061;41.648;24.568;2023-04-20T04:10:15;85357.72;;;7.59;78.94
41312;BME280;27061;41.648;24.568;2023-04-20T04:12:44;85331.88;;;7.25;79.51
41312;BME280;27061;41.648;24.568;2023-04-20T04:15:12;85346.81;;;7.45;78.83
41312;BME280;27061;41.648;24.568;2023-04-20T04:17:47;85363.22;;;7.59;78.69
41312;BME280;27061;41.648;24.568;2023-04-20T04:20:15;85360.56;;;7.51;78.58
41312;BME280;27061;41.648;24.568;2023-04-20T04:22:42;85355.06;;;7.49;79.32
41312;BME280;27061;41.648;24.568;2023-04-20T04:25:39;85363.25;;;7.53;78.97
41312;BME280;27061;41.648;24.568;2023-04-20T04:28:08;85312.72;;;7.15;79.50
41312;BME280;27061;41.648;24.568;2023-04-20T04:30:40;85394.00;;;7.78;78.77
41312;BME280;27061;41.648;24.568;2023-04-20T04:33:08;85396.03;;;7.81;78.59
41312;BME280;27061;41.648;24.568;2023-04-20T04:35:38;85395.44;;;7.72;81.02
41312;BME280;27061;41.648;24.568;2023-04-20T04:38:08;85312.06;;;7.11;80.30
41312;BME280;27061;41.648;24.568;2023-04-20T04:40:35;85361.25;;;7.51;80.73
41312;BME280;27061;41.648;24.568;2023-04-20T04:43:05;85371.41;;;7.63;81.21
41312;BME280;27061;41.648;24.568;2023-04-20T04:45:38;85297.59;;;7.12;81.34
41312;BME280;27061;41.648;24.568;2023-04-20T04:48:09;85337.31;;;7.31;81.48
41312;BME280;27061;41.648;24.568;2023-04-20T04:50:38;85380.31;;;7.69;81.47
41312;BME280;27061;41.648;24.568;2023-04-20T04:53:06;85375.53;;;7.66;81.28
41312;BME280;27061;41.648;24.568;2023-04-20T04:55:33;85359.22;;;7.46;80.99
41312;BME280;27061;41.648;24.568;2023-04-20T04:58:00;85347.50;;;7.45;80.14
41312;BME280;27061;41.648;24.568;2023-04-20T05:00:27;85339.31;;;7.39;80.10
41312;BME280;27061;41.648;24.568;2023-04-20T05:02:54;85406.97;;;7.89;79.87
41312;BME280;27061;41.648;24.568;2023-04-20T05:05:22;85415.91;;;7.94;79.38
41312;BME280;27061;41.648;24.568;2023-04-20T05:07:51;85372.94;;;7.52;79.46
41312;BME280;27061;41.648;24.568;2023-04-20T05:10:18;85383.91;;;7.56;80.94
41312;BME280;27061;41.648;24.568;2023-04-20T05:12:45;85423.53;;;7.85;81.46
41312;BME280;27061;41.648;24.568;2023-04-20T05:15:12;85421.47;;;7.88;81.44
41312;BME280;27061;41.648;24.568;2023-04-20T05:17:39;85426.34;;;7.83;82.04
41312;BME280;27061;41.648;24.568;2023-04-20T05:20:06;85411.97;;;7.72;82.27
41312;BME280;27061;41.648;24.568;2023-04-20T05:22:36;85424.88;;;7.90;81.94
41312;BME280;27061;41.648;24.568;2023-04-20T05:25:04;85428.25;;;7.97;81.94
41312;BME280;27061;41.648;24.568;2023-04-20T05:27:32;85394.88;;;7.60;82.23
41312;BME280;27061;41.648;24.568;2023-04-20T05:29:59;85433.06;;;7.96;82.27
41312;BME280;27061;41.648;24.568;2023-04-20T05:32:46;85401.66;;;7.73;82.40
41312;BME280;27061;41.648;24.568;2023-04-20T05:35:17;85437.84;;;8.02;82.28
41312;BME280;27061;41.648;24.568;2023-04-20T05:37:44;85422.75;;;7.95;82.48
41312;BME280;27061;41.648;24.568;2023-04-20T05:40:13;85436.47;;;8.03;82.12
41312;BME280;27061;41.648;24.568;2023-04-20T05:42:40;85417.78;;;8.09;82.75
41312;BME280;27061;41.648;24.568;2023-04-20T05:45:08;85443.97;;;8.08;83.27
41312;BME280;27061;41.648;24.568;2023-04-20T05:47:35;85345.47;;;7.42;83.67
41312;BME280;27061;41.648;24.568;2023-04-20T05:50:03;85389.31;;;7.64;83.37
41312;BME280;27061;41.648;24.568;2023-04-20T05:52:30;85434.28;;;8.14;83.37
41312;BME280;27061;41.648;24.568;2023-04-20T05:54:57;85319.50;;;7.24;83.08
41312;BME280;27061;41.648;24.568;2023-04-20T05:57:25;85410.38;;;7.94;81.37
41312;BME280;27061;41.648;24.568;2023-04-20T05:59:52;85391.81;;;7.90;81.75
41312;BME280;27061;41.648;24.568;2023-04-20T06:02:21;85413.63;;;8.11;82.16
41312;BME280;27061;41.648;24.568;2023-04-20T06:04:48;85435.56;;;8.21;81.66
41312;BME280;27061;41.648;24.568;2023-04-20T06:07:16;85424.56;;;8.19;81.55
41312;BME280;27061;41.648;24.568;2023-04-20T06:09:43;85431.34;;;8.28;80.34
41312;BME280;27061;41.648;24.568;2023-04-20T06:12:10;85404.56;;;8.18;80.59
41312;BME280;27061;41.648;24.568;2023-04-20T06:14:37;85376.53;;;7.99;79.53
41312;BME280;27061;41.648;24.568;2023-04-20T06:17:04;85379.38;;;7.93;77.96
41312;BME280;27061;41.648;24.568;2023-04-20T06:19:31;85398.38;;;8.18;78.93
41312;BME280;27061;41.648;24.568;2023-04-20T06:21:58;85421.53;;;8.45;79.24
41312;BME280;27061;41.648;24.568;2023-04-20T06:24:26;85430.44;;;8.48;79.85
41312;BME280;27061;41.648;24.568;2023-04-20T06:26:53;85420.06;;;8.50;80.93
41312;BME280;27061;41.648;24.568;2023-04-20T06:29:21;85370.88;;;8.14;81.94
41312;BME280;27061;41.648;24.568;2023-04-20T06:31:48;85416.63;;;8.50;82.82
41312;BME280;27061;41.648;24.568;2023-04-20T06:34:15;85389.88;;;8.38;84.23
41312;BME280;27061;41.648;24.568;2023-04-20T06:36:42;85423.34;;;8.65;85.42
41312;BME280;27061;41.648;24.568;2023-04-20T06:39:09;85415.84;;;8.57;82.88
41312;BME280;27061;41.648;24.568;2023-04-20T06:41:37;85344.03;;;8.10;84.95
41312;BME280;27061;41.648;24.568;2023-04-20T06:44:05;85391.81;;;8.48;85.64
41312;BME280;27061;41.648;24.568;2023-04-20T06:46:32;85419.75;;;8.76;86.24
41312;BME280;27061;41.648;24.568;2023-04-20T06:49:00;85393.75;;;8.59;86.86
41312;BME280;27061;41.648;24.568;2023-04-20T06:51:28;85433.28;;;8.95;89.16
41312;BME280;27061;41.648;24.568;2023-04-20T06:53:55;85369.03;;;8.51;89.55
41312;BME280;27061;41.648;24.568;2023-04-20T06:56:22;85340.16;;;8.44;92.33
41312;BME280;27061;41.648;24.568;2023-04-20T06:58:49;85379.63;;;8.84;93.23
41312;BME280;27061;41.648;24.568;2023-04-20T07:01:16;85307.13;;;8.40;93.29
41312;BME280;27061;41.648;24.568;2023-04-20T07:03:44;85433.25;;;9.44;93.16
41312;BME280;27061;41.648;24.568;2023-04-20T07:06:12;85412.09;;;9.28;91.94
41312;BME280;27061;41.648;24.568;2023-04-20T07:08:41;85417.31;;;9.46;88.91
41312;BME280;27061;41.648;24.568;2023-04-20T07:11:08;85392.63;;;9.36;90.59
41312;BME280;27061;41.648;24.568;2023-04-20T07:13:35;85407.44;;;9.60;89.39
41312;BME280;27061;41.648;24.568;2023-04-20T07:16:02;85429.31;;;9.74;87.19
41312;BME280;27061;41.648;24.568;2023-04-20T07:18:30;85428.34;;;9.89;86.78
41312;BME280;27061;41.648;24.568;2023-04-20T07:21:00;85439.25;;;9.98;84.06
41312;BME280;27061;41.648;24.568;2023-04-20T07:23:27;85407.16;;;9.76;83.05
41312;BME280;27061;41.648;24.568;2023-04-20T07:25:54;85431.03;;;9.96;83.28
41312;BME280;27061;41.648;24.568;2023-04-20T07:28:21;85407.06;;;9.82;81.98
41312;BME280;27061;41.648;24.568;2023-04-20T07:30:48;85442.50;;;10.10;80.72
41312;BME280;27061;41.648;24.568;2023-04-20T07:33:15;85414.53;;;9.89;77.59
41312;BME280;27061;41.648;24.568;2023-04-20T07:35:43;85399.59;;;9.74;76.37
41312;BME280;27061;41.648;24.568;2023-04-20T07:38:15;85431.47;;;10.08;71.75
41312;BME280;27061;41.648;24.568;2023-04-20T07:40:42;85379.28;;;9.49;68.66
41312;BME280;27061;41.648;24.568;2023-04-20T07:43:09;85415.56;;;9.70;72.55
41312;BME280;27061;41.648;24.568;2023-04-20T07:45:38;85446.25;;;9.95;73.28
41312;BME280;27061;41.648;24.568;2023-04-20T07:48:07;85449.66;;;9.97;71.90
41312;BME280;27061;41.648;24.568;2023-04-20T07:50:35;85451.00;;;9.98;70.94
41312;BME280;27061;41.648;24.568;2023-04-20T07:53:02;85448.63;;;9.76;71.37
41312;BME280;27061;41.648;24.568;2023-04-20T07:55:29;85429.63;;;9.53;71.56
41312;BME280;27061;41.648;24.568;2023-04-20T07:57:56;85464.78;;;9.59;74.12
41312;BME280;27061;41.648;24.568;2023-04-20T08:00:23;85467.72;;;9.49;74.83
41312;BME280;27061;41.648;24.568;2023-04-20T08:02:51;85431.50;;;9.22;72.23
41312;BME280;27061;41.648;24.568;2023-04-20T08:05:18;85463.00;;;9.41;74.38
41312;BME280;27061;41.648;24.568;2023-04-20T08:07:45;85465.72;;;9.43;75.86
41312;BME280;27061;41.648;24.568;2023-04-20T08:10:12;85438.47;;;9.19;76.39
41312;BME280;27061;41.648;24.568;2023-04-20T08:12:39;85448.00;;;9.28;74.55
41312;BME280;27061;41.648;24.568;2023-04-20T08:15:07;85438.50;;;9.15;77.08
41312;BME280;27061;41.648;24.568;2023-04-20T08:17:34;85457.53;;;9.37;73.20
41312;BME280;27061;41.648;24.568;2023-04-20T08:20:01;85468.59;;;9.35;72.34
41312;BME280;27061;41.648;24.568;2023-04-20T08:22:32;85435.78;;;9.13;72.27
41312;BME280;27061;41.648;24.568;2023-04-20T08:24:59;85461.88;;;9.22;69.64
41312;BME280;27061;41.648;24.568;2023-04-20T08:27:26;85470.13;;;9.26;68.21
41312;BME280;27061;41.648;24.568;2023-04-20T08:29:55;85468.81;;;9.21;69.78
41312;BME280;27061;41.648;24.568;2023-04-20T08:32:23;85478.56;;;9.14;69.56
41312;BME280;27061;41.648;24.568;2023-04-20T08:34:52;85417.16;;;8.62;68.26
41312;BME280;27061;41.648;24.568;2023-04-20T08:37:19;85451.22;;;8.96;68.82
41312;BME280;27061;41.648;24.568;2023-04-20T08:39:47;85467.50;;;9.16;69.43
41312;BME280;27061;41.648;24.568;2023-04-20T08:42:14;85423.28;;;8.69;68.19
41312;BME280;27061;41.648;24.568;2023-04-20T08:44:42;85456.84;;;8.88;70.94
41312;BME280;27061;41.648;24.568;2023-04-20T08:47:10;85462.25;;;8.96;71.09
41312;BME280;27061;41.648;24.568;2023-04-20T08:49:38;85475.25;;;9.03;72.21
41312;BME280;27061;41.648;24.568;2023-04-20T08:52:05;85436.31;;;8.76;69.21
41312;BME280;27061;41.648;24.568;2023-04-20T08:54:36;85477.28;;;9.07;71.57
41312;BME280;27061;41.648;24.568;2023-04-20T08:57:18;85395.25;;;8.50;71.12
41312;BME280;27061;41.648;24.568;2023-04-20T08:59:45;85412.97;;;8.67;69.21
41312;BME280;27061;41.648;24.568;2023-04-20T09:02:13;85440.34;;;8.81;65.96
41312;BME280;27061;41.648;24.568;2023-04-20T09:04:40;85429.41;;;8.75;70.15
41312;BME280;27061;41.648;24.568;2023-04-20T09:07:18;85411.06;;;8.54;70.21
41312;BME280;27061;41.648;24.568;2023-04-20T09:09:55;85470.44;;;9.02;71.13
41312;BME280;27061;41.648;24.568;2023-04-20T09:12:23;85485.47;;;9.13;64.44
41312;BME280;27061;41.648;24.568;2023-04-20T09:14:51;85439.09;;;8.74;68.87
41312;BME280;27061;41.648;24.568;2023-04-20T09:17:36;85488.22;;;9.15;67.17
41312;BME280;27061;41.648;24.568;2023-04-20T09:20:05;85454.63;;;9.00;66.33
41312;BME280;27061;41.648;24.568;2023-04-20T09:22:34;85482.72;;;9.13;64.87
41312;BME280;27061;41.648;24.568;2023-04-20T09:25:15;85455.38;;;8.95;64.26
41312;BME280;27061;41.648;24.568;2023-04-20T09:27:42;85473.28;;;8.98;64.96
41312;BME280;27061;41.648;24.568;2023-04-20T09:30:10;85404.88;;;8.53;63.00
41312;BME280;27061;41.648;24.568;2023-04-20T09:32:37;85473.19;;;9.04;62.29
41312;BME280;27061;41.648;24.568;2023-04-20T09:35:04;85471.78;;;9.07;62.01
41312;BME280;27061;41.648;24.568;2023-04-20T09:37:33;85441.53;;;8.97;58.66
41312;BME280;27061;41.648;24.568;2023-04-20T09:40:00;85410.88;;;8.68;60.13
41312;BME280;27061;41.648;24.568;2023-04-20T09:42:29;85392.41;;;8.56;60.19
41312;BME280;27061;41.648;24.568;2023-04-20T09:44:58;85444.31;;;8.95;58.92
41312;BME280;27061;41.648;24.568;2023-04-20T09:47:25;85448.31;;;9.06;61.07
41312;BME280;27061;41.648;24.568;2023-04-20T09:49:55;85463.97;;;9.22;60.05
41312;BME280;27061;41.648;24.568;2023-04-20T09:52:26;85473.69;;;9.18;60.93
41312;BME280;27061;41.648;24.568;2023-04-20T09:54:53;85461.84;;;9.24;62.63
41312;BME280;27061;41.648;24.568;2023-04-20T09:57:21;85468.06;;;9.25;61.84
41312;BME280;27061;41.648;24.568;2023-04-20T09:59:50;85379.84;;;8.67;59.98
41312;BME280;27061;41.648;24.568;2023-04-20T10:02:19;85450.72;;;9.30;60.35
41312;BME280;27061;41.648;24.568;2023-04-20T10:04:59;85454.56;;;9.49;61.19
41312;BME280;27061;41.648;24.568;2023-04-20T10:07:31;85395.94;;;9.00;62.93
41312;BME280;27061;41.648;24.568;2023-04-20T10:12:33;85348.66;;;8.77;63.95
41312;BME280;27061;41.648;24.568;2023-04-20T10:15:02;85429.84;;;9.41;63.02
41312;BME280;27061;41.648;24.568;2023-04-20T10:17:31;85380.53;;;9.13;61.77
41312;BME280;27061;41.648;24.568;2023-04-20T10:19:58;85381.00;;;9.30;58.92
41312;BME280;27061;41.648;24.568;2023-04-20T10:22:28;85422.84;;;9.46;62.80
41312;BME280;27061;41.648;24.568;2023-04-20T10:25:00;85439.94;;;9.57;64.40
41312;BME280;27061;41.648;24.568;2023-04-20T10:27:28;85458.41;;;9.69;63.34
41312;BME280;27061;41.648;24.568;2023-04-20T10:30:08;85452.22;;;9.66;62.39
41312;BME280;27061;41.648;24.568;2023-04-20T10:32:36;85392.69;;;9.32;64.84
41312;BME280;27061;41.648;24.568;2023-04-20T10:35:09;85465.09;;;9.84;61.76
41312;BME280;27061;41.648;24.568;2023-04-20T10:37:46;85459.66;;;9.78;61.48
41312;BME280;27061;41.648;24.568;2023-04-20T10:40:14;85431.69;;;9.55;59.32
41312;BME280;27061;41.648;24.568;2023-04-20T10:42:44;85335.41;;;8.88;60.13
41312;BME280;27061;41.648;24.568;2023-04-20T10:45:12;85454.09;;;9.80;59.84
41312;BME280;27061;41.648;24.568;2023-04-20T10:47:40;85238.69;;;8.03;65.25
41312;BME280;27061;41.648;24.568;2023-04-20T10:50:12;85265.69;;;8.44;61.81
41312;BME280;27061;41.648;24.568;2023-04-20T10:52:41;85328.63;;;8.78;66.34
41312;BME280;27061;41.648;24.568;2023-04-20T10:55:23;85292.41;;;8.56;67.26
41312;BME280;27061;41.648;24.568;2023-04-20T10:57:51;85373.50;;;9.22;66.40
41312;BME280;27061;41.648;24.568;2023-04-20T11:00:27;85454.56;;;9.93;64.85
41312;BME280;27061;41.648;24.568;2023-04-20T11:02:55;85384.31;;;9.38;68.44
41312;BME280;27061;41.648;24.568;2023-04-20T11:05:24;85413.00;;;9.58;68.40
41312;BME280;27061;41.648;24.568;2023-04-20T11:07:55;85413.47;;;9.70;64.43
41312;BME280;27061;41.648;24.568;2023-04-20T11:10:35;85452.97;;;10.06;66.70
41312;BME280;27061;41.648;24.568;2023-04-20T11:13:03;85397.63;;;9.67;62.12
41312;BME280;27061;41.648;24.568;2023-04-20T11:15:31;85393.34;;;9.76;65.27
41312;BME280;27061;41.648;24.568;2023-04-20T11:18:09;85383.78;;;9.69;67.42
41312;BME280;27061;41.648;24.568;2023-04-20T11:20:52;85359.25;;;9.50;65.82
41312;BME280;27061;41.648;24.568;2023-04-20T11:23:20;85386.31;;;9.83;67.52
41312;BME280;27061;41.648;24.568;2023-04-20T11:25:55;85386.94;;;9.85;67.04
41312;BME280;27061;41.648;24.568;2023-04-20T11:28:22;85463.53;;;10.36;64.10
41312;BME280;27061;41.648;24.568;2023-04-20T11:30:49;85274.69;;;8.88;66.06
41312;BME280;27061;41.648;24.568;2023-04-20T11:33:30;85458.97;;;10.18;65.60
41312;BME280;27061;41.648;24.568;2023-04-20T11:35:58;85426.16;;;9.96;66.73
41312;BME280;27061;41.648;24.568;2023-04-20T11:38:31;85427.59;;;9.93;60.28
41312;BME280;27061;41.648;24.568;2023-04-20T11:40:59;85448.84;;;10.05;60.27
41312;BME280;27061;41.648;24.568;2023-04-20T11:43:30;85446.66;;;10.09;64.83
41312;BME280;27061;41.648;24.568;2023-04-20T11:46:01;85362.66;;;9.53;63.46
41312;BME280;27061;41.648;24.568;2023-04-20T11:48:30;85309.53;;;9.09;66.18
41312;BME280;27061;41.648;24.568;2023-04-20T11:50:58;85362.38;;;9.67;61.94
41312;BME280;27061;41.648;24.568;2023-04-20T11:53:25;85384.94;;;9.82;66.41
41312;BME280;27061;41.648;24.568;2023-04-20T11:55:52;85434.16;;;10.14;62.00
41312;BME280;27061;41.648;24.568;2023-04-20T11:58:19;85375.22;;;9.85;60.06
41312;BME280;27061;41.648;24.568;2023-04-20T12:00:46;85458.78;;;10.28;66.46
41312;BME280;27061;41.648;24.568;2023-04-20T12:03:13;85372.78;;;9.65;68.56
41312;BME280;27061;41.648;24.568;2023-04-20T12:05:41;85267.41;;;8.68;68.62
41312;BME280;27061;41.648;24.568;2023-04-20T12:08:09;85363.06;;;9.68;63.40
41312;BME280;27061;41.648;24.568;2023-04-20T12:10:36;85425.13;;;10.16;65.51
41312;BME280;27061;41.648;24.568;2023-04-20T12:13:03;85388.22;;;9.93;65.06
41312;BME280;27061;41.648;24.568;2023-04-20T12:15:30;85457.78;;;10.46;62.14
41312;BME280;27061;41.648;24.568;2023-04-20T12:17:57;85387.44;;;9.96;67.34
41312;BME280;27061;41.648;24.568;2023-04-20T12:20:24;85374.59;;;9.80;64.56
41312;BME280;27061;41.648;24.568;2023-04-20T12:22:51;85397.53;;;10.12;63.69
41312;BME280;27061;41.648;24.568;2023-04-20T12:25:19;85356.72;;;9.75;67.29
41312;BME280;27061;41.648;24.568;2023-04-20T12:27:46;85429.84;;;10.23;67.05
41312;BME280;27061;41.648;24.568;2023-04-20T12:30:15;85346.59;;;9.64;66.49
41312;BME280;27061;41.648;24.568;2023-04-20T12:32:42;85387.84;;;10.13;63.79
41312;BME280;27061;41.648;24.568;2023-04-20T12:35:09;85414.75;;;10.16;63.12
41312;BME280;27061;41.648;24.568;2023-04-20T12:37:36;85402.03;;;10.32;63.90
41312;BME280;27061;41.648;24.568;2023-04-20T12:40:05;85445.84;;;10.56;62.70
41312;BME280;27061;41.648;24.568;2023-04-20T12:42:32;85356.19;;;10.06;57.95
41312;BME280;27061;41.648;24.568;2023-04-20T12:45:00;85412.63;;;10.56;56.42
41312;BME280;27061;41.648;24.568;2023-04-20T12:47:27;85437.34;;;10.66;57.59
41312;BME280;27061;41.648;24.568;2023-04-20T12:49:54;85339.66;;;10.02;57.28
41312;BME280;27061;41.648;24.568;2023-04-20T12:52:21;85366.31;;;10.17;57.97
41312;BME280;27061;41.648;24.568;2023-04-20T12:54:49;85424.94;;;10.63;62.71
41312;BME280;27061;41.648;24.568;2023-04-20T12:57:16;85384.00;;;10.35;58.82
41312;BME280;27061;41.648;24.568;2023-04-20T12:59:43;85355.41;;;10.09;62.16
41312;BME280;27061;41.648;24.568;2023-04-20T13:02:10;85330.63;;;10.03;64.40
41312;BME280;27061;41.648;24.568;2023-04-20T13:04:37;85371.59;;;10.32;63.00
41312;BME280;27061;41.648;24.568;2023-04-20T13:07:05;85326.63;;;9.96;60.57
41312;BME280;27061;41.648;24.568;2023-04-20T13:09:32;85304.75;;;9.84;58.07